El Paso — WDC2687 — position and weather

sailwx.info

Track history (hours):
 
Tides and Currents Weather Stations Pressure Air Temp Water Temp Dewpoint Dewpoint Depression Visibility Wind Speed Wind Dir Waves Ship Positions

El Paso

Owner: Kirby Inland Marine LP, Houston, TX. More information available from US FCC via Universal Licensing System and Coast Guard Vessel Documentation Center.

Last reported at 2017-Sep-20 09:53 UTC. Time now 2017-Sep-25 11:47 UTC.
Position N 29°29' W 094°52'.

Length 114 m; draft 3 m.

Type: . MMSI: 366996420.

Date/timePositionNaut miles runAvg speedWind from/ knotsBaromVisibWave heightAir tempDewpointWater temp
2017-Sep-20 09:53N 29°29' W 094°52'2 5.8
2017-Sep-20 09:30N 29°31' W 094°53'3 5.9
2017-Sep-20 09:00N 29°33' W 094°55'3 6.3
2017-Sep-20 08:30N 29°36' W 094°57'3 6.6
2017-Sep-20 08:00N 29°39' W 094°58'3 6.7
2017-Sep-20 07:30N 29°42' W 094°60'3 5.5
2017-Sep-20 07:00N 29°44' W 095°02'4 1.2
2017-Sep-20 03:52N 29°47' W 095°04'1 0.4
2017-Sep-20 00:58N 29°46' W 095°05'1 0.2
2017-Sep-19 19:14N 29°47' W 095°04'0 0.3
2017-Sep-19 18:03N 29°47' W 095°04'0 2.8
2017-Sep-19 17:56N 29°47' W 095°04'0 0.0
2017-Sep-19 04:35N 29°47' W 095°04'2 4.7
2017-Sep-19 04:15N 29°46' W 095°05'0 0.0
2017-Sep-19 01:27N 29°46' W 095°05'1 0.4
2017-Sep-18 22:50N 29°47' W 095°04'1 2.1
2017-Sep-18 22:10N 29°46' W 095°05'1 5.2
2017-Sep-18 21:55N 29°45' W 095°06'2 5.0
2017-Sep-18 21:30N 29°44' W 095°08'3 5.0
2017-Sep-18 20:59N 29°45' W 095°11'2 4.6
2017-Sep-18 20:28N 29°44' W 095°14'0 0.3
2017-Sep-18 19:56N 29°44' W 095°14'0 0.2
2017-Sep-18 19:29N 29°44' W 095°14'3 4.8
2017-Sep-18 18:46N 29°45' W 095°10'2 6.6
2017-Sep-18 18:30N 29°44' W 095°08'2 4.0
2017-Sep-18 18:00N 29°45' W 095°06'0 0.0
2017-Sep-18 17:28N 29°45' W 095°06'3 1.0
2017-Sep-18 14:20N 29°47' W 095°04'0 0.4
2017-Sep-18 13:56N 29°47' W 095°04'2 5.1
2017-Sep-18 13:29N 29°45' W 095°06'2 0.3
2017-Sep-18 06:16N 29°47' W 095°04'2 4.9
2017-Sep-18 05:58N 29°46' W 095°05'1 0.1
2017-Sep-17 19:10N 29°47' W 095°04'0 0.6
2017-Sep-17 18:54N 29°47' W 095°04'2 4.2
2017-Sep-17 18:29N 29°46' W 095°05'2 0.2
2017-Sep-17 07:34N 29°47' W 095°04'1 4.7
2017-Sep-17 07:15N 29°46' W 095°05'2 7.7
2017-Sep-17 07:00N 29°44' W 095°07'4 7.5
2017-Sep-17 06:27N 29°45' W 095°11'1 0.2
2017-Sep-17 00:23N 29°45' W 095°10'5 1.7
2017-Sep-16 21:25N 29°47' W 095°04'0 0.0
2017-Sep-16 15:59N 29°47' W 095°04'0 0.0
2017-Sep-16 03:21N 29°47' W 095°05'2 5.1
2017-Sep-16 03:00N 29°45' W 095°06'1 0.0
2017-Sep-15 10:14N 29°46' W 095°05'0 0.7
2017-Sep-15 09:51N 29°46' W 095°06'0 0.0
2017-Sep-14 15:04N 29°46' W 095°05'0 0.0
2017-Sep-13 23:47N 29°46' W 095°05'1 0.8
2017-Sep-13 23:01N 29°45' W 095°06'0 1.1
2017-Sep-13 23:00N 29°45' W 095°06'1 0.4
2017-Sep-13 21:17N 29°46' W 095°05'0 0.1
2017-Sep-13 17:16N 29°46' W 095°05'1 0.1
2017-Sep-12 18:29N 29°47' W 095°04'0 0.0
2017-Sep-12 18:00N 29°47' W 095°04'0 0.0
2017-Sep-12 15:57N 29°47' W 095°04'0 0.0
2017-Sep-12 15:28N 29°47' W 095°04'1 1.0
2017-Sep-12 14:00N 29°46' W 095°05'1 0.1
2017-Sep-11 18:45N 29°47' W 095°04'0 0.0
2017-Sep-11 16:05N 29°47' W 095°04'2 1.9
2017-Sep-11 15:14N 29°46' W 095°05'  
Track history (hours):
 
Tides and Currents Weather Stations Pressure Air Temp Water Temp Dewpoint Dewpoint Depression Visibility Wind Speed Wind Dir Waves Ship Positions

El Paso

Owner: Kirby Inland Marine LP, Houston, TX. More information available from US FCC via Universal Licensing System and Coast Guard Vessel Documentation Center.

Last reported at 2017-Sep-20 09:53 UTC. Time now 2017-Sep-25 11:47 UTC.
Position N 29°29' W 094°52'.

Length 114 m; draft 3 m.

Type: . MMSI: 366996420.

Date/timePositionNaut miles runAvg speedWind from/ knotsBaromVisibWave heightAir tempDewpointWater temp
2017-Sep-20 09:53N 29°29' W 094°52'2 5.8
2017-Sep-20 09:30N 29°31' W 094°53'3 5.9
2017-Sep-20 09:00N 29°33' W 094°55'3 6.3
2017-Sep-20 08:30N 29°36' W 094°57'3 6.6
2017-Sep-20 08:00N 29°39' W 094°58'3 6.7
2017-Sep-20 07:30N 29°42' W 094°60'3 5.5
2017-Sep-20 07:00N 29°44' W 095°02'4 1.2
2017-Sep-20 03:52N 29°47' W 095°04'1 0.4
2017-Sep-20 00:58N 29°46' W 095°05'1 0.2
2017-Sep-19 19:14N 29°47' W 095°04'0 0.3
2017-Sep-19 18:03N 29°47' W 095°04'0 2.8
2017-Sep-19 17:56N 29°47' W 095°04'0 0.0
2017-Sep-19 04:35N 29°47' W 095°04'2 4.7
2017-Sep-19 04:15N 29°46' W 095°05'0 0.0
2017-Sep-19 01:27N 29°46' W 095°05'1 0.4
2017-Sep-18 22:50N 29°47' W 095°04'1 2.1
2017-Sep-18 22:10N 29°46' W 095°05'1 5.2
2017-Sep-18 21:55N 29°45' W 095°06'2 5.0
2017-Sep-18 21:30N 29°44' W 095°08'3 5.0
2017-Sep-18 20:59N 29°45' W 095°11'2 4.6
2017-Sep-18 20:28N 29°44' W 095°14'0 0.3
2017-Sep-18 19:56N 29°44' W 095°14'0 0.2
2017-Sep-18 19:29N 29°44' W 095°14'3 4.8
2017-Sep-18 18:46N 29°45' W 095°10'2 6.6
2017-Sep-18 18:30N 29°44' W 095°08'2 4.0
2017-Sep-18 18:00N 29°45' W 095°06'0 0.0
2017-Sep-18 17:28N 29°45' W 095°06'3 1.0
2017-Sep-18 14:20N 29°47' W 095°04'0 0.4
2017-Sep-18 13:56N 29°47' W 095°04'2 5.1
2017-Sep-18 13:29N 29°45' W 095°06'2 0.3
2017-Sep-18 06:16N 29°47' W 095°04'2 4.9
2017-Sep-18 05:58N 29°46' W 095°05'1 0.1
2017-Sep-17 19:10N 29°47' W 095°04'0 0.6
2017-Sep-17 18:54N 29°47' W 095°04'2 4.2
2017-Sep-17 18:29N 29°46' W 095°05'2 0.2
2017-Sep-17 07:34N 29°47' W 095°04'1 4.7
2017-Sep-17 07:15N 29°46' W 095°05'2 7.7
2017-Sep-17 07:00N 29°44' W 095°07'4 7.5
2017-Sep-17 06:27N 29°45' W 095°11'1 0.2
2017-Sep-17 00:23N 29°45' W 095°10'5 1.7
2017-Sep-16 21:25N 29°47' W 095°04'0 0.0
2017-Sep-16 15:59N 29°47' W 095°04'0 0.0
2017-Sep-16 03:21N 29°47' W 095°05'2 5.1
2017-Sep-16 03:00N 29°45' W 095°06'1 0.0
2017-Sep-15 10:14N 29°46' W 095°05'0 0.7
2017-Sep-15 09:51N 29°46' W 095°06'0 0.0
2017-Sep-14 15:04N 29°46' W 095°05'0 0.0
2017-Sep-13 23:47N 29°46' W 095°05'1 0.8
2017-Sep-13 23:01N 29°45' W 095°06'0 1.1
2017-Sep-13 23:00N 29°45' W 095°06'1 0.4
2017-Sep-13 21:17N 29°46' W 095°05'0 0.1
2017-Sep-13 17:16N 29°46' W 095°05'1 0.1
2017-Sep-12 18:29N 29°47' W 095°04'0 0.0
2017-Sep-12 18:00N 29°47' W 095°04'0 0.0
2017-Sep-12 15:57N 29°47' W 095°04'0 0.0
2017-Sep-12 15:28N 29°47' W 095°04'1 1.0
2017-Sep-12 14:00N 29°46' W 095°05'1 0.1
2017-Sep-11 18:45N 29°47' W 095°04'0 0.0
2017-Sep-11 16:05N 29°47' W 095°04'2 1.9
2017-Sep-11 15:14N 29°46' W 095°05'  

Dump ship's entire track history